sensor_id;sensor_type;location;lat;lon;timestamp;temperature;humidity
78788;DHT22;68131;52.508;5.502;2023-08-24T00:01:53;17.90;71.40
78788;DHT22;68131;52.508;5.502;2023-08-24T00:04:22;17.90;71.30
78788;DHT22;68131;52.508;5.502;2023-08-24T00:06:51;17.90;71.30
78788;DHT22;68131;52.508;5.502;2023-08-24T00:09:26;17.90;71.40
78788;DHT22;68131;52.508;5.502;2023-08-24T00:11:58;17.90;71.40
78788;DHT22;68131;52.508;5.502;2023-08-24T00:14:27;17.90;71.50
78788;DHT22;68131;52.508;5.502;2023-08-24T00:16:57;17.90;71.60
78788;DHT22;68131;52.508;5.502;2023-08-24T00:19:28;17.90;71.60
78788;DHT22;68131;52.508;5.502;2023-08-24T00:21:59;18.00;71.60
78788;DHT22;68131;52.508;5.502;2023-08-24T00:24:28;18.00;71.40
78788;DHT22;68131;52.508;5.502;2023-08-24T00:27:00;18.10;71.40
78788;DHT22;68131;52.508;5.502;2023-08-24T00:29:31;18.20;71.10
78788;DHT22;68131;52.508;5.502;2023-08-24T00:32:03;18.30;70.90
78788;DHT22;68131;52.508;5.502;2023-08-24T00:34:33;18.40;70.90
78788;DHT22;68131;52.508;5.502;2023-08-24T00:37:03;18.40;70.80
78788;DHT22;68131;52.508;5.502;2023-08-24T00:39:35;18.40;71.30
78788;DHT22;68131;52.508;5.502;2023-08-24T00:42:09;18.30;71.60
78788;DHT22;68131;52.508;5.502;2023-08-24T00:44:41;18.20;71.90
78788;DHT22;68131;52.508;5.502;2023-08-24T00:47:11;18.10;72.40
78788;DHT22;68131;52.508;5.502;2023-08-24T00:49:41;18.00;72.50
78788;DHT22;68131;52.508;5.502;2023-08-24T00:52:11;18.00;72.60
78788;DHT22;68131;52.508;5.502;2023-08-24T00:54:41;18.00;72.50
78788;DHT22;68131;52.508;5.502;2023-08-24T00:57:13;18.00;72.50
78788;DHT22;68131;52.508;5.502;2023-08-24T00:59:43;18.10;72.40
78788;DHT22;68131;52.508;5.502;2023-08-24T01:02:13;18.10;72.30
78788;DHT22;68131;52.508;5.502;2023-08-24T01:04:42;18.20;72.30
78788;DHT22;68131;52.508;5.502;2023-08-24T01:07:12;18.30;72.20
78788;DHT22;68131;52.508;5.502;2023-08-24T01:09:42;18.30;72.10
78788;DHT22;68131;52.508;5.502;2023-08-24T01:12:20;18.30;72.00
78788;DHT22;68131;52.508;5.502;2023-08-24T01:15:04;18.30;72.00
78788;DHT22;68131;52.508;5.502;2023-08-24T01:17:42;18.30;72.20
78788;DHT22;68131;52.508;5.502;2023-08-24T01:20:15;18.30;72.60
78788;DHT22;68131;52.508;5.502;2023-08-24T01:22:53;18.20;72.80
78788;DHT22;68131;52.508;5.502;2023-08-24T01:25:32;18.20;72.80
78788;DHT22;68131;52.508;5.502;2023-08-24T01:28:13;18.20;72.90
78788;DHT22;68131;52.508;5.502;2023-08-24T01:30:49;18.20;73.20
78788;DHT22;68131;52.508;5.502;2023-08-24T01:33:21;18.30;73.00
78788;DHT22;68131;52.508;5.502;2023-08-24T01:35:53;18.30;72.90
78788;DHT22;68131;52.508;5.502;2023-08-24T01:38:23;18.40;72.60
78788;DHT22;68131;52.508;5.502;2023-08-24T01:40:57;18.50;72.90
78788;DHT22;68131;52.508;5.502;2023-08-24T01:43:38;18.60;73.10
78788;DHT22;68131;52.508;5.502;2023-08-24T01:46:08;18.60;72.90
78788;DHT22;68131;52.508;5.502;2023-08-24T01:48:39;18.60;72.90
78788;DHT22;68131;52.508;5.502;2023-08-24T01:51:10;18.60;72.90
78788;DHT22;68131;52.508;5.502;2023-08-24T01:53:39;18.70;72.80
78788;DHT22;68131;52.508;5.502;2023-08-24T01:56:09;18.70;73.40
78788;DHT22;68131;52.508;5.502;2023-08-24T01:58:41;18.70;73.40
78788;DHT22;68131;52.508;5.502;2023-08-24T02:01:13;18.70;73.40
78788;DHT22;68131;52.508;5.502;2023-08-24T02:03:45;18.60;73.40
78788;DHT22;68131;52.508;5.502;2023-08-24T02:06:14;18.60;73.50
78788;DHT22;68131;52.508;5.502;2023-08-24T02:08:46;18.50;73.70
78788;DHT22;68131;52.508;5.502;2023-08-24T02:11:18;18.40;73.70
78788;DHT22;68131;52.508;5.502;2023-08-24T02:13:51;18.40;73.80
78788;DHT22;68131;52.508;5.502;2023-08-24T02:16:20;18.40;74.10
78788;DHT22;68131;52.508;5.502;2023-08-24T02:18:51;18.30;73.90
78788;DHT22;68131;52.508;5.502;2023-08-24T02:21:20;18.30;74.00
78788;DHT22;68131;52.508;5.502;2023-08-24T02:23:49;18.20;74.00
78788;DHT22;68131;52.508;5.502;2023-08-24T02:26:21;18.20;74.50
78788;DHT22;68131;52.508;5.502;2023-08-24T02:28:54;18.10;74.70
78788;DHT22;68131;52.508;5.502;2023-08-24T02:31:26;18.10;74.50
78788;DHT22;68131;52.508;5.502;2023-08-24T02:33:55;18.20;74.30
78788;DHT22;68131;52.508;5.502;2023-08-24T02:36:28;18.20;74.20
78788;DHT22;68131;52.508;5.502;2023-08-24T02:39:00;18.20;74.30
78788;DHT22;68131;52.508;5.502;2023-08-24T02:41:31;18.20;74.30
78788;DHT22;68131;52.508;5.502;2023-08-24T02:44:03;18.20;74.30
78788;DHT22;68131;52.508;5.502;2023-08-24T02:46:33;18.20;74.30
78788;DHT22;68131;52.508;5.502;2023-08-24T02:49:02;18.10;74.50
78788;DHT22;68131;52.508;5.502;2023-08-24T02:51:39;18.10;74.50
78788;DHT22;68131;52.508;5.502;2023-08-24T02:54:08;18.10;74.40
78788;DHT22;68131;52.508;5.502;2023-08-24T02:56:37;18.10;74.40
78788;DHT22;68131;52.508;5.502;2023-08-24T02:59:09;18.10;74.60
78788;DHT22;68131;52.508;5.502;2023-08-24T03:01:38;18.10;74.60
78788;DHT22;68131;52.508;5.502;2023-08-24T03:04:09;18.20;74.40
78788;DHT22;68131;52.508;5.502;2023-08-24T03:06:39;18.20;74.40
78788;DHT22;68131;52.508;5.502;2023-08-24T03:09:11;18.20;74.30
78788;DHT22;68131;52.508;5.502;2023-08-24T03:11:41;18.10;74.50
78788;DHT22;68131;52.508;5.502;2023-08-24T03:14:14;18.10;74.30
78788;DHT22;68131;52.508;5.502;2023-08-24T03:16:47;18.10;74.50
78788;DHT22;68131;52.508;5.502;2023-08-24T03:19:20;18.10;74.80
78788;DHT22;68131;52.508;5.502;2023-08-24T03:21:50;18.10;74.70
78788;DHT22;68131;52.508;5.502;2023-08-24T03:24:22;18.10;74.70
78788;DHT22;68131;52.508;5.502;2023-08-24T03:26:56;18.10;74.70
78788;DHT22;68131;52.508;5.502;2023-08-24T03:29:31;18.10;74.80
78788;DHT22;68131;52.508;5.502;2023-08-24T03:32:09;18.00;74.90
78788;DHT22;68131;52.508;5.502;2023-08-24T03:34:39;18.00;74.80
78788;DHT22;68131;52.508;5.502;2023-08-24T03:37:10;18.00;74.90
78788;DHT22;68131;52.508;5.502;2023-08-24T03:39:41;17.90;74.90
78788;DHT22;68131;52.508;5.502;2023-08-24T03:42:10;17.90;75.30
78788;DHT22;68131;52.508;5.502;2023-08-24T03:44:42;17.90;75.30
78788;DHT22;68131;52.508;5.502;2023-08-24T03:47:11;17.90;75.30
78788;DHT22;68131;52.508;5.502;2023-08-24T03:49:46;17.90;75.30
78788;DHT22;68131;52.508;5.502;2023-08-24T03:52:16;17.80;75.30
78788;DHT22;68131;52.508;5.502;2023-08-24T03:54:47;17.80;75.30
78788;DHT22;68131;52.508;5.502;2023-08-24T03:57:19;17.80;75.30
78788;DHT22;68131;52.508;5.502;2023-08-24T03:59:51;17.80;75.30
78788;DHT22;68131;52.508;5.502;2023-08-24T04:02:21;17.80;75.20
78788;DHT22;68131;52.508;5.502;2023-08-24T04:04:52;17.80;75.40
78788;DHT22;68131;52.508;5.502;2023-08-24T04:07:24;17.90;75.30
78788;DHT22;68131;52.508;5.502;2023-08-24T04:09:53;17.90;75.10
78788;DHT22;68131;52.508;5.502;2023-08-24T04:12:23;17.90;75.30
78788;DHT22;68131;52.508;5.502;2023-08-24T04:14:54;17.90;75.30
78788;DHT22;68131;52.508;5.502;2023-08-24T04:17:24;17.90;75.30
78788;DHT22;68131;52.508;5.502;2023-08-24T04:19:53;17.90;75.20
78788;DHT22;68131;52.508;5.502;2023-08-24T04:22:22;17.90;75.20
78788;DHT22;68131;52.508;5.502;2023-08-24T04:24:51;17.80;75.20
78788;DHT22;68131;52.508;5.502;2023-08-24T04:27:21;17.80;75.20
78788;DHT22;68131;52.508;5.502;2023-08-24T04:29:50;17.80;75.20
78788;DHT22;68131;52.508;5.502;2023-08-24T04:32:22;17.90;75.20
78788;DHT22;68131;52.508;5.502;2023-08-24T04:34:53;17.90;75.30
78788;DHT22;68131;52.508;5.502;2023-08-24T04:37:23;17.90;75.30
78788;DHT22;68131;52.508;5.502;2023-08-24T04:39:53;17.80;75.20
78788;DHT22;68131;52.508;5.502;2023-08-24T04:42:22;17.80;75.30
78788;DHT22;68131;52.508;5.502;2023-08-24T04:44:53;17.80;75.30
78788;DHT22;68131;52.508;5.502;2023-08-24T04:47:28;17.80;75.40
78788;DHT22;68131;52.508;5.502;2023-08-24T04:49:58;17.80;75.30
78788;DHT22;68131;52.508;5.502;2023-08-24T04:52:27;17.80;75.20
78788;DHT22;68131;52.508;5.502;2023-08-24T04:54:57;17.80;75.30
78788;DHT22;68131;52.508;5.502;2023-08-24T04:57:26;17.80;75.20
78788;DHT22;68131;52.508;5.502;2023-08-24T04:59:55;17.90;75.10
78788;DHT22;68131;52.508;5.502;2023-08-24T05:02:30;17.90;75.20
78788;DHT22;68131;52.508;5.502;2023-08-24T05:04:59;17.90;75.10
78788;DHT22;68131;52.508;5.502;2023-08-24T05:07:29;17.90;75.20
78788;DHT22;68131;52.508;5.502;2023-08-24T05:09:58;18.10;75.30
78788;DHT22;68131;52.508;5.502;2023-08-24T05:12:29;18.40;75.10
78788;DHT22;68131;52.508;5.502;2023-08-24T05:15:01;18.80;74.50
78788;DHT22;68131;52.508;5.502;2023-08-24T05:17:36;19.30;73.90
78788;DHT22;68131;52.508;5.502;2023-08-24T05:20:09;19.60;73.10
78788;DHT22;68131;52.508;5.502;2023-08-24T05:22:39;20.00;72.60
78788;DHT22;68131;52.508;5.502;2023-08-24T05:25:09;20.50;71.90
78788;DHT22;68131;52.508;5.502;2023-08-24T05:27:39;21.00;70.70
78788;DHT22;68131;52.508;5.502;2023-08-24T05:30:10;21.40;69.60
78788;DHT22;68131;52.508;5.502;2023-08-24T05:32:44;21.70;68.70
78788;DHT22;68131;52.508;5.502;2023-08-24T05:35:15;22.00;68.10
78788;DHT22;68131;52.508;5.502;2023-08-24T05:37:46;22.30;67.70
78788;DHT22;68131;52.508;5.502;2023-08-24T05:40:15;22.50;67.00
78788;DHT22;68131;52.508;5.502;2023-08-24T05:42:45;22.50;67.40
78788;DHT22;68131;52.508;5.502;2023-08-24T05:45:15;22.50;67.00
78788;DHT22;68131;52.508;5.502;2023-08-24T05:47:46;22.40;66.80
78788;DHT22;68131;52.508;5.502;2023-08-24T05:50:16;22.20;67.10
78788;DHT22;68131;52.508;5.502;2023-08-24T05:52:46;22.10;67.60
78788;DHT22;68131;52.508;5.502;2023-08-24T05:55:16;22.00;67.40
78788;DHT22;68131;52.508;5.502;2023-08-24T05:57:45;21.90;67.40
78788;DHT22;68131;52.508;5.502;2023-08-24T06:00:16;21.90;67.70
78788;DHT22;68131;52.508;5.502;2023-08-24T06:02:48;21.90;67.30
78788;DHT22;68131;52.508;5.502;2023-08-24T06:05:18;21.80;67.40
78788;DHT22;68131;52.508;5.502;2023-08-24T06:07:48;21.60;67.40
78788;DHT22;68131;52.508;5.502;2023-08-24T06:10:22;21.50;67.70
78788;DHT22;68131;52.508;5.502;2023-08-24T06:12:52;21.50;67.80
78788;DHT22;68131;52.508;5.502;2023-08-24T06:15:22;21.40;67.60
78788;DHT22;68131;52.508;5.502;2023-08-24T06:17:58;21.30;67.80
78788;DHT22;68131;52.508;5.502;2023-08-24T06:20:28;21.40;68.20
78788;DHT22;68131;52.508;5.502;2023-08-24T06:22:58;21.50;68.00
78788;DHT22;68131;52.508;5.502;2023-08-24T06:25:28;21.50;67.80
78788;DHT22;68131;52.508;5.502;2023-08-24T06:28:00;21.50;67.70
78788;DHT22;68131;52.508;5.502;2023-08-24T06:30:31;21.40;68.00
78788;DHT22;68131;52.508;5.502;2023-08-24T06:33:06;21.50;68.10
78788;DHT22;68131;52.508;5.502;2023-08-24T06:35:37;21.70;67.80
78788;DHT22;68131;52.508;5.502;2023-08-24T06:38:08;21.80;67.50
78788;DHT22;68131;52.508;5.502;2023-08-24T06:40:40;21.80;67.60
78788;DHT22;68131;52.508;5.502;2023-08-24T06:43:10;21.90;67.40
78788;DHT22;68131;52.508;5.502;2023-08-24T06:45:40;21.90;67.40
78788;DHT22;68131;52.508;5.502;2023-08-24T06:48:12;21.90;67.50
78788;DHT22;68131;52.508;5.502;2023-08-24T06:50:41;22.00;67.30
78788;DHT22;68131;52.508;5.502;2023-08-24T06:53:12;22.10;67.20
78788;DHT22;68131;52.508;5.502;2023-08-24T06:55:42;22.10;67.00
78788;DHT22;68131;52.508;5.502;2023-08-24T06:58:11;22.20;67.00
78788;DHT22;68131;52.508;5.502;2023-08-24T07:00:43;22.30;66.70
78788;DHT22;68131;52.508;5.502;2023-08-24T07:03:15;22.20;66.80
78788;DHT22;68131;52.508;5.502;2023-08-24T07:05:46;22.10;67.10
78788;DHT22;68131;52.508;5.502;2023-08-24T07:08:17;22.20;67.30
78788;DHT22;68131;52.508;5.502;2023-08-24T07:10:48;22.30;67.10
78788;DHT22;68131;52.508;5.502;2023-08-24T07:13:17;22.30;67.10
78788;DHT22;68131;52.508;5.502;2023-08-24T07:15:46;22.40;67.40
78788;DHT22;68131;52.508;5.502;2023-08-24T07:18:18;22.50;67.30
78788;DHT22;68131;52.508;5.502;2023-08-24T07:20:49;22.80;67.00
78788;DHT22;68131;52.508;5.502;2023-08-24T07:23:18;22.90;66.50
78788;DHT22;68131;52.508;5.502;2023-08-24T07:25:49;23.10;66.40
78788;DHT22;68131;52.508;5.502;2023-08-24T07:28:21;23.20;66.10
78788;DHT22;68131;52.508;5.502;2023-08-24T07:30:50;23.00;65.90
78788;DHT22;68131;52.508;5.502;2023-08-24T07:33:25;22.90;66.30
78788;DHT22;68131;52.508;5.502;2023-08-24T07:35:55;22.70;66.70
78788;DHT22;68131;52.508;5.502;2023-08-24T07:38:30;22.80;66.80
78788;DHT22;68131;52.508;5.502;2023-08-24T07:41:01;22.90;67.20
78788;DHT22;68131;52.508;5.502;2023-08-24T07:43:31;23.20;66.70
78788;DHT22;68131;52.508;5.502;2023-08-24T07:46:03;23.40;66.30
78788;DHT22;68131;52.508;5.502;2023-08-24T07:48:35;23.60;65.50
78788;DHT22;68131;52.508;5.502;2023-08-24T07:51:06;23.60;65.40
78788;DHT22;68131;52.508;5.502;2023-08-24T07:53:36;23.40;65.70
78788;DHT22;68131;52.508;5.502;2023-08-24T07:56:05;23.40;65.80
78788;DHT22;68131;52.508;5.502;2023-08-24T07:58:34;23.40;65.90
78788;DHT22;68131;52.508;5.502;2023-08-24T08:01:04;23.60;65.90
78788;DHT22;68131;52.508;5.502;2023-08-24T08:03:36;23.90;65.80
78788;DHT22;68131;52.508;5.502;2023-08-24T08:06:05;24.10;65.00
78788;DHT22;68131;52.508;5.502;2023-08-24T08:08:34;24.10;64.80
78788;DHT22;68131;52.508;5.502;2023-08-24T08:11:03;24.10;65.10
78788;DHT22;68131;52.508;5.502;2023-08-24T08:13:33;24.20;65.20
78788;DHT22;68131;52.508;5.502;2023-08-24T08:16:03;24.30;65.10
78788;DHT22;68131;52.508;5.502;2023-08-24T08:18:36;24.30;65.20
78788;DHT22;68131;52.508;5.502;2023-08-24T08:21:09;24.40;65.20
78788;DHT22;68131;52.508;5.502;2023-08-24T08:23:39;24.50;65.10
78788;DHT22;68131;52.508;5.502;2023-08-24T08:26:11;24.60;64.90
78788;DHT22;68131;52.508;5.502;2023-08-24T08:28:41;24.90;64.60
78788;DHT22;68131;52.508;5.502;2023-08-24T08:31:10;25.10;63.90
78788;DHT22;68131;52.508;5.502;2023-08-24T08:33:42;25.20;63.80
78788;DHT22;68131;52.508;5.502;2023-08-24T08:36:11;25.20;63.40
78788;DHT22;68131;52.508;5.502;2023-08-24T08:38:40;25.20;63.20
78788;DHT22;68131;52.508;5.502;2023-08-24T08:41:10;25.10;63.10
78788;DHT22;68131;52.508;5.502;2023-08-24T08:43:39;25.00;63.60
78788;DHT22;68131;52.508;5.502;2023-08-24T08:46:08;25.00;63.60
78788;DHT22;68131;52.508;5.502;2023-08-24T08:48:42;25.00;63.70
78788;DHT22;68131;52.508;5.502;2023-08-24T08:51:14;25.00;64.00
78788;DHT22;68131;52.508;5.502;2023-08-24T08:53:45;25.00;63.80
78788;DHT22;68131;52.508;5.502;2023-08-24T08:56:14;24.90;64.00
78788;DHT22;68131;52.508;5.502;2023-08-24T08:58:45;24.80;64.00
78788;DHT22;68131;52.508;5.502;2023-08-24T09:01:15;24.70;64.30
78788;DHT22;68131;52.508;5.502;2023-08-24T09:03:48;24.70;64.50
78788;DHT22;68131;52.508;5.502;2023-08-24T09:06:18;24.80;64.20
78788;DHT22;68131;52.508;5.502;2023-08-24T09:08:48;24.80;63.90
78788;DHT22;68131;52.508;5.502;2023-08-24T09:11:17;24.80;63.70
78788;DHT22;68131;52.508;5.502;2023-08-24T09:13:47;24.70;63.80
78788;DHT22;68131;52.508;5.502;2023-08-24T09:16:19;24.70;63.80
78788;DHT22;68131;52.508;5.502;2023-08-24T09:18:51;24.70;64.10
78788;DHT22;68131;52.508;5.502;2023-08-24T09:21:24;24.70;64.10
78788;DHT22;68131;52.508;5.502;2023-08-24T09:23:55;24.70;64.10
78788;DHT22;68131;52.508;5.502;2023-08-24T09:26:28;24.70;64.20
78788;DHT22;68131;52.508;5.502;2023-08-24T09:29:00;24.60;64.00
78788;DHT22;68131;52.508;5.502;2023-08-24T09:31:36;24.60;64.10
78788;DHT22;68131;52.508;5.502;2023-08-24T09:34:10;24.60;64.10
78788;DHT22;68131;52.508;5.502;2023-08-24T09:36:40;24.60;64.20
78788;DHT22;68131;52.508;5.502;2023-08-24T09:39:11;24.50;64.30
78788;DHT22;68131;52.508;5.502;2023-08-24T09:41:40;24.50;64.30
78788;DHT22;68131;52.508;5.502;2023-08-24T09:44:10;24.40;64.50
78788;DHT22;68131;52.508;5.502;2023-08-24T09:46:40;24.40;64.70
78788;DHT22;68131;52.508;5.502;2023-08-24T09:49:13;24.50;64.60
78788;DHT22;68131;52.508;5.502;2023-08-24T09:51:44;24.50;64.60
78788;DHT22;68131;52.508;5.502;2023-08-24T09:54:17;24.50;64.40
78788;DHT22;68131;52.508;5.502;2023-08-24T09:56:50;24.40;64.80
78788;DHT22;68131;52.508;5.502;2023-08-24T09:59:23;24.30;65.10
78788;DHT22;68131;52.508;5.502;2023-08-24T10:01:55;24.20;65.30
78788;DHT22;68131;52.508;5.502;2023-08-24T10:04:34;24.20;65.30
78788;DHT22;68131;52.508;5.502;2023-08-24T10:07:08;24.20;65.30
78788;DHT22;68131;52.508;5.502;2023-08-24T10:09:43;24.20;65.30
78788;DHT22;68131;52.508;5.502;2023-08-24T10:12:13;24.10;65.50
78788;DHT22;68131;52.508;5.502;2023-08-24T10:14:51;24.10;65.60
78788;DHT22;68131;52.508;5.502;2023-08-24T10:17:23;24.10;65.80
78788;DHT22;68131;52.508;5.502;2023-08-24T10:19:56;24.10;65.90
78788;DHT22;68131;52.508;5.502;2023-08-24T10:22:27;24.10;65.90
78788;DHT22;68131;52.508;5.502;2023-08-24T10:24:57;24.10;65.90
78788;DHT22;68131;52.508;5.502;2023-08-24T10:27:27;24.10;66.00
78788;DHT22;68131;52.508;5.502;2023-08-24T10:29:56;24.10;66.10
78788;DHT22;68131;52.508;5.502;2023-08-24T10:32:28;24.10;66.10
78788;DHT22;68131;52.508;5.502;2023-08-24T10:35:00;24.10;66.20
78788;DHT22;68131;52.508;5.502;2023-08-24T10:37:29;24.20;66.30
78788;DHT22;68131;52.508;5.502;2023-08-24T10:40:00;24.20;66.30
78788;DHT22;68131;52.508;5.502;2023-08-24T10:42:43;24.30;66.30
78788;DHT22;68131;52.508;5.502;2023-08-24T10:45:13;24.30;66.50
78788;DHT22;68131;52.508;5.502;2023-08-24T10:47:46;24.30;66.60
78788;DHT22;68131;52.508;5.502;2023-08-24T10:50:18;24.30;66.70
78788;DHT22;68131;52.508;5.502;2023-08-24T10:52:47;24.30;66.90
78788;DHT22;68131;52.508;5.502;2023-08-24T10:55:24;24.30;67.20
78788;DHT22;68131;52.508;5.502;2023-08-24T10:57:56;24.40;67.40
78788;DHT22;68131;52.508;5.502;2023-08-24T11:00:26;24.40;67.70
78788;DHT22;68131;52.508;5.502;2023-08-24T11:02:57;24.20;68.30
78788;DHT22;68131;52.508;5.502;2023-08-24T11:05:30;24.10;68.70
78788;DHT22;68131;52.508;5.502;2023-08-24T11:08:02;24.10;69.00
78788;DHT22;68131;52.508;5.502;2023-08-24T11:10:34;24.20;69.10
78788;DHT22;68131;52.508;5.502;2023-08-24T11:13:05;24.10;69.30
78788;DHT22;68131;52.508;5.502;2023-08-24T11:15:38;24.00;69.50
78788;DHT22;68131;52.508;5.502;2023-08-24T11:18:21;23.90;69.70
78788;DHT22;68131;52.508;5.502;2023-08-24T11:20:56;23.80;69.90
78788;DHT22;68131;52.508;5.502;2023-08-24T11:23:26;23.80;70.00
78788;DHT22;68131;52.508;5.502;2023-08-24T11:25:57;23.70;70.20
78788;DHT22;68131;52.508;5.502;2023-08-24T11:28:27;23.60;70.70
78788;DHT22;68131;52.508;5.502;2023-08-24T11:30:58;23.50;70.90
78788;DHT22;68131;52.508;5.502;2023-08-24T11:33:29;23.60;71.00
78788;DHT22;68131;52.508;5.502;2023-08-24T11:36:03;23.60;70.90
78788;DHT22;68131;52.508;5.502;2023-08-24T11:38:37;23.70;71.00
78788;DHT22;68131;52.508;5.502;2023-08-24T11:41:13;23.80;70.90
78788;DHT22;68131;52.508;5.502;2023-08-24T11:43:43;23.80;70.90
78788;DHT22;68131;52.508;5.502;2023-08-24T11:46:17;23.90;71.10
78788;DHT22;68131;52.508;5.502;2023-08-24T11:48:46;23.80;71.50
78788;DHT22;68131;52.508;5.502;2023-08-24T11:51:18;23.70;71.70
78788;DHT22;68131;52.508;5.502;2023-08-24T11:53:49;23.70;71.90
78788;DHT22;68131;52.508;5.502;2023-08-24T11:56:18;23.80;71.90
78788;DHT22;68131;52.508;5.502;2023-08-24T11:58:49;23.90;71.60
78788;DHT22;68131;52.508;5.502;2023-08-24T12:01:22;23.90;71.80
78788;DHT22;68131;52.508;5.502;2023-08-24T12:03:53;23.90;71.80
78788;DHT22;68131;52.508;5.502;2023-08-24T12:06:27;23.90;71.80
78788;DHT22;68131;52.508;5.502;2023-08-24T12:08:56;23.90;71.80
78788;DHT22;68131;52.508;5.502;2023-08-24T12:11:26;23.80;71.80
78788;DHT22;68131;52.508;5.502;2023-08-24T12:13:55;23.70;71.90
78788;DHT22;68131;52.508;5.502;2023-08-24T12:16:24;23.60;71.90
78788;DHT22;68131;52.508;5.502;2023-08-24T12:18:54;23.50;72.10
78788;DHT22;68131;52.508;5.502;2023-08-24T12:21:28;23.30;72.20
78788;DHT22;68131;52.508;5.502;2023-08-24T12:24:02;23.20;72.50
78788;DHT22;68131;52.508;5.502;2023-08-24T12:26:33;23.10;72.70
78788;DHT22;68131;52.508;5.502;2023-08-24T12:29:04;23.10;72.70
78788;DHT22;68131;52.508;5.502;2023-08-24T12:31:33;23.10;72.30
78788;DHT22;68131;52.508;5.502;2023-08-24T12:34:05;23.10;72.30
78788;DHT22;68131;52.508;5.502;2023-08-24T12:36:38;23.00;72.60
78788;DHT22;68131;52.508;5.502;2023-08-24T12:39:07;23.10;72.50
78788;DHT22;68131;52.508;5.502;2023-08-24T12:41:39;23.20;72.30
78788;DHT22;68131;52.508;5.502;2023-08-24T12:44:08;23.20;72.30
78788;DHT22;68131;52.508;5.502;2023-08-24T12:46:38;23.20;72.30
78788;DHT22;68131;52.508;5.502;2023-08-24T12:49:07;23.20;72.50
78788;DHT22;68131;52.508;5.502;2023-08-24T12:51:39;23.20;72.40
78788;DHT22;68131;52.508;5.502;2023-08-24T12:54:08;23.20;72.30
78788;DHT22;68131;52.508;5.502;2023-08-24T12:56:38;23.20;72.30
78788;DHT22;68131;52.508;5.502;2023-08-24T12:59:08;23.10;72.30
78788;DHT22;68131;52.508;5.502;2023-08-24T13:01:38;23.10;72.40
78788;DHT22;68131;52.508;5.502;2023-08-24T13:04:08;23.10;72.40
78788;DHT22;68131;52.508;5.502;2023-08-24T13:06:40;23.10;72.30
78788;DHT22;68131;52.508;5.502;2023-08-24T13:09:09;23.10;72.30
78788;DHT22;68131;52.508;5.502;2023-08-24T13:11:40;23.20;72.20
78788;DHT22;68131;52.508;5.502;2023-08-24T13:14:09;23.20;72.20
78788;DHT22;68131;52.508;5.502;2023-08-24T13:16:41;23.10;72.30
78788;DHT22;68131;52.508;5.502;2023-08-24T13:19:11;23.10;72.70
78788;DHT22;68131;52.508;5.502;2023-08-24T13:21:43;23.00;73.00
78788;DHT22;68131;52.508;5.502;2023-08-24T13:24:12;23.00;73.10
78788;DHT22;68131;52.508;5.502;2023-08-24T13:26:41;22.90;73.00
78788;DHT22;68131;52.508;5.502;2023-08-24T13:29:11;22.90;73.20
78788;DHT22;68131;52.508;5.502;2023-08-24T13:31:40;22.90;73.30
78788;DHT22;68131;52.508;5.502;2023-08-24T13:34:09;22.90;73.20
78788;DHT22;68131;52.508;5.502;2023-08-24T13:36:39;23.00;73.00
78788;DHT22;68131;52.508;5.502;2023-08-24T13:39:10;23.00;72.80
78788;DHT22;68131;52.508;5.502;2023-08-24T13:41:40;23.10;72.70
78788;DHT22;68131;52.508;5.502;2023-08-24T13:44:09;23.10;72.50
78788;DHT22;68131;52.508;5.502;2023-08-24T13:46:38;23.10;72.60
78788;DHT22;68131;52.508;5.502;2023-08-24T13:49:08;23.10;72.60
78788;DHT22;68131;52.508;5.502;2023-08-24T13:51:37;23.10;72.60
78788;DHT22;68131;52.508;5.502;2023-08-24T13:54:16;23.10;72.50
78788;DHT22;68131;52.508;5.502;2023-08-24T13:56:48;23.10;72.60
78788;DHT22;68131;52.508;5.502;2023-08-24T13:59:20;23.10;72.60
78788;DHT22;68131;52.508;5.502;2023-08-24T14:01:50;23.10;72.50
78788;DHT22;68131;52.508;5.502;2023-08-24T14:04:19;23.20;72.30
78788;DHT22;68131;52.508;5.502;2023-08-24T14:06:48;23.20;72.20
78788;DHT22;68131;52.508;5.502;2023-08-24T14:09:20;23.20;72.20
78788;DHT22;68131;52.508;5.502;2023-08-24T14:11:50;23.30;72.10
78788;DHT22;68131;52.508;5.502;2023-08-24T14:14:19;23.40;71.90
78788;DHT22;68131;52.508;5.502;2023-08-24T14:16:54;23.40;71.80
78788;DHT22;68131;52.508;5.502;2023-08-24T14:19:24;23.50;71.70
78788;DHT22;68131;52.508;5.502;2023-08-24T14:21:53;23.50;71.60
78788;DHT22;68131;52.508;5.502;2023-08-24T14:24:29;23.50;71.60
78788;DHT22;68131;52.508;5.502;2023-08-24T14:27:03;23.60;71.60
78788;DHT22;68131;52.508;5.502;2023-08-24T14:29:33;23.60;71.50
78788;DHT22;68131;52.508;5.502;2023-08-24T14:32:03;23.60;71.70
78788;DHT22;68131;52.508;5.502;2023-08-24T14:34:32;23.70;71.60
78788;DHT22;68131;52.508;5.502;2023-08-24T14:37:01;23.80;71.30
78788;DHT22;68131;52.508;5.502;2023-08-24T14:39:34;23.80;71.20
78788;DHT22;68131;52.508;5.502;2023-08-24T14:42:04;23.90;71.10
78788;DHT22;68131;52.508;5.502;2023-08-24T14:44:33;23.90;70.80
78788;DHT22;68131;52.508;5.502;2023-08-24T14:47:03;23.90;70.80
78788;DHT22;68131;52.508;5.502;2023-08-24T14:49:32;23.90;70.60
78788;DHT22;68131;52.508;5.502;2023-08-24T14:52:01;23.90;70.60
78788;DHT22;68131;52.508;5.502;2023-08-24T14:54:30;24.00;70.30
78788;DHT22;68131;52.508;5.502;2023-08-24T14:57:02;23.90;70.30
78788;DHT22;68131;52.508;5.502;2023-08-24T14:59:32;24.00;70.40
78788;DHT22;68131;52.508;5.502;2023-08-24T15:02:02;24.00;70.40
78788;DHT22;68131;52.508;5.502;2023-08-24T15:04:31;24.10;70.40
78788;DHT22;68131;52.508;5.502;2023-08-24T15:07:00;24.10;70.20
78788;DHT22;68131;52.508;5.502;2023-08-24T15:09:31;24.20;70.10
78788;DHT22;68131;52.508;5.502;2023-08-24T15:12:03;24.20;69.90
78788;DHT22;68131;52.508;5.502;2023-08-24T15:14:33;24.20;69.90
78788;DHT22;68131;52.508;5.502;2023-08-24T15:17:02;24.10;69.80
78788;DHT22;68131;52.508;5.502;2023-08-24T15:19:31;24.00;69.90
78788;DHT22;68131;52.508;5.502;2023-08-24T15:22:01;24.00;70.20
78788;DHT22;68131;52.508;5.502;2023-08-24T15:24:30;24.00;70.30
78788;DHT22;68131;52.508;5.502;2023-08-24T15:27:02;24.00;70.30
78788;DHT22;68131;52.508;5.502;2023-08-24T15:29:31;24.10;70.20
78788;DHT22;68131;52.508;5.502;2023-08-24T15:32:00;24.10;70.20
78788;DHT22;68131;52.508;5.502;2023-08-24T15:34:30;24.10;70.10
78788;DHT22;68131;52.508;5.502;2023-08-24T15:36:59;24.20;69.90
78788;DHT22;68131;52.508;5.502;2023-08-24T15:39:28;24.20;69.80
78788;DHT22;68131;52.508;5.502;2023-08-24T15:41:58;24.20;69.70
78788;DHT22;68131;52.508;5.502;2023-08-24T15:44:34;24.20;69.60
78788;DHT22;68131;52.508;5.502;2023-08-24T15:47:03;24.20;69.50
78788;DHT22;68131;52.508;5.502;2023-08-24T15:49:33;24.20;69.40
78788;DHT22;68131;52.508;5.502;2023-08-24T15:52:05;24.10;69.50
78788;DHT22;68131;52.508;5.502;2023-08-24T15:54:34;24.10;69.30